Time;durP1;ratioP1;P1;durP2;ratioP2;P2;SDS_P1;SDS_P2;PMS_P1;PMS_P2;Temp;Humidity;BMP_temperature;BMP_pressure;BME280_temperature;BME280_humidity;BME280_pressure;Samples;Min_cycle;Max_cycle;Signal;HPM_P1;HPM_P2
2023/08/17 00:01:45;;;;;;;;;10.25;9.25;;;;;25.57;48.05;101243.38;4976107;28;45229;-38
2023/08/17 00:04:10;;;;;;;;;9.00;9.00;;;;;25.58;48.04;101248.56;4959140;28;45374;-37
2023/08/17 00:06:36;;;;;;;;;12.75;11.25;;;;;25.56;48.01;101250.47;4958801;28;45293;-46
2023/08/17 00:09:01;;;;;;;;;8.50;8.00;;;;;25.57;48.49;101252.19;4976598;28;45527;-38
2023/08/17 00:11:26;;;;;;;;;10.50;10.25;;;;;25.57;48.05;101244.22;4976127;28;45397;-41
2023/08/17 00:13:52;;;;;;;;;12.25;9.00;;;;;25.56;48.09;101250.47;4976157;28;45977;-38
2023/08/17 00:16:17;;;;;;;;;9.00;8.25;;;;;25.57;47.93;101246.03;4975807;28;52986;-38
2023/08/17 00:18:43;;;;;;;;;3.75;2.50;;;;;25.57;48.58;101246.88;4976865;28;45413;-45
2023/08/17 00:21:08;;;;;;;;;12.25;10.75;;;;;25.54;48.05;101252.38;4976119;28;46098;-46
2023/08/17 00:23:34;;;;;;;;;11.00;10.75;;;;;25.57;48.02;101246.03;4976295;28;45508;-45
2023/08/17 00:25:59;;;;;;;;;9.75;9.75;;;;;25.56;48.10;101241.69;4976255;28;45468;-46
2023/08/17 00:28:25;;;;;;;;;12.25;9.75;;;;;25.55;48.23;101240.81;4976437;28;45401;-46
2023/08/17 00:30:51;;;;;;;;;9.25;8.75;;;;;25.56;48.32;101233.72;4979249;28;46127;-37
2023/08/17 00:33:16;;;;;;;;;9.00;8.75;;;;;25.56;48.03;101233.72;4979498;28;45348;-41
2023/08/17 00:35:42;;;;;;;;;10.75;9.00;;;;;25.57;48.22;101241.56;4979840;28;45409;-42
2023/08/17 00:38:07;;;;;;;;;12.25;10.25;;;;;25.56;48.66;101234.56;4979797;28;45282;-36
2023/08/17 00:40:33;;;;;;;;;12.75;10.00;;;;;25.57;48.25;101238.06;4979007;28;45966;-38
2023/08/17 00:42:58;;;;;;;;;11.25;11.25;;;;;25.57;48.30;101232.78;4979258;28;45261;-38
2023/08/17 00:45:24;;;;;;;;;14.50;11.00;;;;;25.56;48.69;101234.56;4979204;28;45321;-37
2023/08/17 00:47:49;;;;;;;;;10.50;10.00;;;;;25.57;48.73;101241.56;4979530;28;45358;-39
2023/08/17 00:50:15;;;;;;;;;11.75;11.00;;;;;25.56;48.86;101239.03;4979201;28;50142;-38
2023/08/17 00:52:42;;;;;;;;;11.50;11.50;;;;;25.56;48.53;101245.19;4979347;28;45763;-38
2023/08/17 00:55:09;;;;;;;;;11.00;10.00;;;;;25.57;48.73;101254.00;4979260;28;45391;-38
2023/08/17 00:57:35;;;;;;;;;11.00;11.00;;;;;25.57;48.87;101254.00;4961726;28;45610;-40
2023/08/17 01:00:01;;;;;;;;;9.50;9.50;;;;;25.56;48.68;101254.97;4978837;28;45532;-35
2023/08/17 01:02:26;;;;;;;;;13.25;8.50;;;;;25.56;48.33;101250.47;4978901;28;45360;-36
2023/08/17 01:04:53;;;;;;;;;13.00;11.50;;;;;25.56;48.60;101245.19;4978963;28;45292;-36
2023/08/17 01:07:18;;;;;;;;;10.25;10.25;;;;;25.55;48.32;101237.34;4979145;28;45548;-44
2023/08/17 01:09:44;;;;;;;;;10.00;10.00;;;;;25.56;48.57;101236.38;4979076;28;46612;-40
2023/08/17 01:12:20;;;;;;;;;12.50;10.00;;;;;25.55;48.63;101238.16;4978351;28;45325;-36
2023/08/17 01:14:55;;;;;;;;;7.50;7.50;;;;;25.55;48.39;101234.69;4979129;28;45353;-35
2023/08/17 01:17:39;;;;;;;;;9.25;9.25;;;;;25.55;48.77;101226.72;4979092;28;45333;-42
2023/08/17 01:20:09;;;;;;;;;12.25;10.75;;;;;25.53;48.89;101232.13;4978554;28;46298;-35
2023/08/17 01:22:36;;;;;;;;;10.25;10.00;;;;;25.56;48.33;101229.25;4978494;28;45317;-41
2023/08/17 01:25:02;;;;;;;;;11.00;11.00;;;;;25.55;48.80;101227.56;4978693;28;45386;-43
2023/08/17 01:27:40;;;;;;;;;12.50;10.75;;;;;25.55;48.57;101235.50;4978782;28;45513;-42
2023/08/17 01:30:06;;;;;;;;;13.75;10.50;;;;;25.55;48.95;101232.84;4978531;28;45615;-42
2023/08/17 01:33:00;;;;;;;;;14.00;12.00;;;;;25.55;49.18;101230.22;4978412;28;45744;-41
2023/08/17 01:35:33;;;;;;;;;10.25;10.00;;;;;25.54;48.82;101225.84;4968621;28;45396;-43
2023/08/17 01:38:04;;;;;;;;;11.00;11.00;;;;;25.54;48.81;101219.72;4978741;28;45243;-42
2023/08/17 01:40:33;;;;;;;;;12.25;12.00;;;;;25.54;48.65;101225.84;4977449;28;46230;-40
2023/08/17 01:42:59;;;;;;;;;14.50;11.00;;;;;25.52;48.88;101224.28;4978353;28;45232;-44
2023/08/17 01:45:25;;;;;;;;;10.25;10.25;;;;;25.54;48.95;101225.84;4978334;28;45365;-41
2023/08/17 01:47:50;;;;;;;;;13.00;11.00;;;;;25.54;48.88;101231.16;4978354;28;45561;-49
2023/08/17 01:50:16;;;;;;;;;10.25;10.25;;;;;25.54;48.68;101232.97;4978397;28;46475;-40
2023/08/17 01:52:41;;;;;;;;;11.00;10.50;;;;;25.52;48.77;101227.75;4976993;28;46042;-43
2023/08/17 01:55:07;;;;;;;;;10.50;9.75;;;;;25.54;48.88;101230.31;4978140;28;45238;-42
2023/08/17 01:57:32;;;;;;;;;12.00;11.00;;;;;25.54;48.93;101235.63;4978314;28;45413;-47
2023/08/17 01:59:58;;;;;;;;;9.50;9.50;;;;;25.52;48.90;101227.75;4977864;28;46150;-46
2023/08/17 02:02:24;;;;;;;;;11.00;10.50;;;;;25.54;49.00;101246.25;4977923;28;45838;-46
2023/08/17 02:04:49;;;;;;;;;12.00;11.25;;;;;25.52;49.20;101233.06;4977992;28;49155;-45
2023/08/17 02:07:15;;;;;;;;;11.00;9.75;;;;;25.53;48.94;101245.38;4978563;28;45283;-42
2023/08/17 02:09:40;;;;;;;;;12.50;10.50;;;;;25.54;48.88;101240.94;4977905;28;46428;-44
2023/08/17 02:12:06;;;;;;;;;11.00;10.50;;;;;25.53;48.70;101245.38;4977833;28;45373;-44
2023/08/17 02:14:31;;;;;;;;;10.25;9.00;;;;;25.53;48.84;101242.72;4977912;28;45407;-37
2023/08/17 02:16:56;;;;;;;;;11.25;9.50;;;;;25.52;49.32;101249.00;4976109;28;52809;-39
2023/08/17 02:19:21;;;;;;;;;11.25;10.00;;;;;25.52;49.11;101253.47;4975449;28;61209;-36
2023/08/17 02:21:47;;;;;;;;;13.00;10.00;;;;;25.53;49.39;101249.84;4977862;28;45256;-37
2023/08/17 02:24:12;;;;;;;;;9.25;9.25;;;;;25.52;49.05;101249.00;4977640;28;45329;-36
2023/08/17 02:26:38;;;;;;;;;12.00;10.00;;;;;25.53;48.63;101248.03;4977782;28;45223;-44
2023/08/17 02:29:04;;;;;;;;;14.00;11.00;;;;;25.52;49.27;101248.16;4977404;28;46099;-40
2023/08/17 02:31:29;;;;;;;;;11.00;11.00;;;;;25.52;48.84;101253.47;4977470;28;45219;-37
2023/08/17 02:33:58;;;;;;;;;11.00;10.00;;;;;25.52;48.95;101261.44;4977566;28;45414;-44
2023/08/17 02:36:23;;;;;;;;;12.50;11.00;;;;;25.50;49.15;101261.53;4977643;28;45554;-42
2023/08/17 02:38:48;;;;;;;;;11.25;10.75;;;;;25.52;49.36;101264.91;4977682;28;45994;-38
2023/08/17 02:41:14;;;;;;;;;12.25;10.50;;;;;25.50;49.10;101261.53;4977295;28;45381;-39
2023/08/17 02:43:39;;;;;;;;;9.50;9.00;;;;;25.50;49.29;101248.28;4977056;28;53450;-36
2023/08/17 02:46:07;;;;;;;;;11.00;9.25;;;;;25.51;49.28;101257.94;4977265;28;45377;-40
2023/08/17 02:48:32;;;;;;;;;10.00;9.25;;;;;25.50;48.87;101258.88;4977124;28;46269;-39
2023/08/17 02:50:57;;;;;;;;;10.25;8.25;;;;;25.50;48.81;101256.25;4977202;28;45359;-40
2023/08/17 02:53:23;;;;;;;;;12.00;12.00;;;;;25.51;49.28;101252.63;4974771;28;45224;-38
2023/08/17 02:55:48;;;;;;;;;12.00;11.25;;;;;25.50;48.91;101258.03;4977753;28;45229;-39
2023/08/17 02:58:13;;;;;;;;;11.67;10.00;;;;;25.49;49.25;101253.66;4976462;28;64091;-47
2023/08/17 03:00:39;;;;;;;;;11.50;10.50;;;;;25.49;49.37;101256.31;4976839;28;45346;-43
2023/08/17 03:03:04;;;;;;;;;13.75;11.00;;;;;25.50;48.84;101266.84;4977244;28;45450;-45
2023/08/17 03:05:29;;;;;;;;;11.75;11.75;;;;;25.48;49.24;101258.16;4977195;28;45449;-41
2023/08/17 03:07:55;;;;;;;;;10.75;10.25;;;;;25.48;49.57;101263.44;4976949;28;46116;-39
2023/08/17 03:10:20;;;;;;;;;15.25;11.00;;;;;25.49;49.37;101257.19;4977326;28;45365;-39
2023/08/17 03:12:45;;;;;;;;;9.25;9.25;;;;;25.49;49.17;101253.66;4976747;28;51050;-35
2023/08/17 03:15:10;;;;;;;;;13.25;9.75;;;;;25.49;49.12;101248.38;4976780;28;50292;-37
2023/08/17 03:17:36;;;;;;;;;11.50;10.00;;;;;25.49;49.64;101245.72;4976462;28;54503;-36
2023/08/17 03:20:01;;;;;;;;;10.00;9.00;;;;;25.49;48.93;101249.22;4976638;28;50843;-36
2023/08/17 03:22:26;;;;;;;;;14.00;11.75;;;;;25.49;49.19;101246.56;4976833;28;45242;-35
2023/08/17 03:24:55;;;;;;;;;10.25;10.25;;;;;25.47;49.57;101241.34;4976367;28;45577;-36
2023/08/17 03:27:20;;;;;;;;;13.00;10.50;;;;;25.48;49.28;101242.22;4976941;28;46444;-35
2023/08/17 03:29:45;;;;;;;;;13.75;11.50;;;;;25.47;49.36;101241.34;4976777;28;45276;-38
2023/08/17 03:32:10;;;;;;;;;11.50;11.00;;;;;25.47;49.05;101240.53;4976608;28;45411;-35
2023/08/17 03:34:36;;;;;;;;;12.75;11.50;;;;;25.48;49.56;101247.53;4977001;28;45341;-37
2023/08/17 03:37:01;;;;;;;;;9.00;9.00;;;;;25.49;49.83;101240.41;4975901;28;66547;-39
2023/08/17 03:39:26;;;;;;;;;14.50;11.00;;;;;25.48;49.55;101242.22;4976605;28;45467;-40
2023/08/17 03:41:52;;;;;;;;;10.25;10.25;;;;;25.47;49.24;101245.81;4975602;28;45337;-40
2023/08/17 03:44:17;;;;;;;;;13.25;11.75;;;;;25.47;49.03;101238.69;4976632;28;45607;-39
2023/08/17 03:46:42;;;;;;;;;9.75;9.75;;;;;25.47;49.69;101240.53;4976024;28;57763;-37
2023/08/17 03:49:08;;;;;;;;;9.25;9.25;;;;;25.46;49.15;101233.50;4975189;28;45247;-36
2023/08/17 03:51:33;;;;;;;;;9.00;9.00;;;;;25.46;49.57;101238.81;4976504;28;45287;-36
2023/08/17 03:53:58;;;;;;;;;11.00;10.50;;;;;25.46;49.50;101236.16;4976395;28;47924;-35
2023/08/17 03:56:24;;;;;;;;;11.25;11.25;;;;;25.46;49.08;101239.69;4975342;28;47448;-35
2023/08/17 03:58:50;;;;;;;;;10.25;10.25;;;;;25.47;49.52;101241.34;4975927;28;54986;-38
2023/08/17 04:01:15;;;;;;;;;12.00;10.75;;;;;25.46;49.45;101244.13;4976423;28;45235;-38
2023/08/17 04:03:41;;;;;;;;;11.25;9.75;;;;;25.46;49.45;101242.34;4976862;28;45309;-38
2023/08/17 04:06:07;;;;;;;;;10.50;9.00;;;;;25.46;49.76;101239.69;4979573;28;46172;-42
2023/08/17 04:08:32;;;;;;;;;10.50;10.50;;;;;25.45;49.51;101239.78;4979731;28;45370;-38
2023/08/17 04:10:58;;;;;;;;;11.25;11.00;;;;;25.44;49.07;101230.97;4978595;28;45343;-44
2023/08/17 04:13:23;;;;;;;;;9.00;9.00;;;;;25.45;49.79;101237.13;4980275;28;45301;-45
2023/08/17 04:15:48;;;;;;;;;11.00;11.00;;;;;25.45;49.32;101237.13;4979427;28;45497;-42
2023/08/17 04:18:13;;;;;;;;;12.25;10.50;;;;;25.44;49.18;101232.75;4979051;28;57659;-43
2023/08/17 04:20:39;;;;;;;;;11.50;10.25;;;;;25.45;49.60;101239.78;4979683;28;45441;-47
2023/08/17 04:23:04;;;;;;;;;10.00;10.00;;;;;25.44;49.76;101238.06;4979267;28;51326;-46
2023/08/17 04:25:29;;;;;;;;;13.50;10.75;;;;;25.45;49.44;101237.13;4978790;28;62691;-40
2023/08/17 04:27:55;;;;;;;;;13.00;10.50;;;;;25.44;49.22;101241.59;4979357;28;56921;-36
2023/08/17 04:30:20;;;;;;;;;6.25;5.50;;;;;25.43;49.10;101242.53;4979500;28;45242;-35
2023/08/17 04:32:51;;;;;;;;;13.50;10.00;;;;;25.42;49.40;101234.66;4979591;28;45329;-35
2023/08/17 04:35:17;;;;;;;;;10.25;9.75;;;;;25.43;49.53;101233.72;4977857;28;47157;-35
2023/08/17 04:37:42;;;;;;;;;12.75;11.00;;;;;25.44;49.38;101235.41;4979240;28;45449;-36
2023/08/17 04:40:08;;;;;;;;;10.75;10.75;;;;;25.43;49.35;101242.53;4979478;28;45330;-35
2023/08/17 04:42:33;;;;;;;;;11.50;11.25;;;;;25.42;49.83;101232.03;4979517;28;45469;-39
2023/08/17 04:44:59;;;;;;;;;14.75;12.00;;;;;25.42;49.71;101234.66;4979160;28;47712;-40
2023/08/17 04:47:24;;;;;;;;;13.25;11.25;;;;;25.43;49.66;101236.38;4979438;28;45405;-35
2023/08/17 04:49:49;;;;;;;;;14.50;12.00;;;;;25.41;49.63;101243.63;4979224;28;45335;-39
2023/08/17 04:52:15;;;;;;;;;13.00;11.00;;;;;25.42;49.55;101242.63;4978863;28;53308;-39
2023/08/17 04:54:40;;;;;;;;;10.50;10.50;;;;;25.42;49.46;101239.97;4978929;28;45408;-40
2023/08/17 04:57:05;;;;;;;;;12.50;11.75;;;;;25.41;49.49;101239.16;4978901;28;45690;-42
2023/08/17 04:59:30;;;;;;;;;12.00;10.75;;;;;25.39;50.12;101242.84;4978906;28;45376;-41
2023/08/17 05:01:56;;;;;;;;;13.25;13.00;;;;;25.40;50.00;101247.19;4979285;28;45246;-41
2023/08/17 05:04:21;;;;;;;;;13.75;11.50;;;;;25.40;49.65;101237.44;4978712;28;45439;-42
2023/08/17 05:06:47;;;;;;;;;15.75;14.50;;;;;25.40;50.04;101240.09;4978965;28;45445;-36
2023/08/17 05:09:12;;;;;;;;;16.25;13.25;;;;;25.40;50.06;101239.22;4978820;28;45358;-37
2023/08/17 05:11:37;;;;;;;;;17.50;13.50;;;;;25.40;49.72;101231.28;4961584;28;45628;-38
2023/08/17 05:14:03;;;;;;;;;13.25;12.75;;;;;25.38;49.93;101238.50;4978078;28;62613;-43
2023/08/17 05:16:28;;;;;;;;;12.50;12.50;;;;;25.38;50.31;101239.31;4977941;28;45332;-45
2023/08/17 05:18:53;;;;;;;;;14.25;13.75;;;;;25.36;50.41;101238.56;4978428;28;52726;-37
2023/08/17 05:21:19;;;;;;;;;17.00;13.00;;;;;25.37;50.42;101234.13;4978777;28;45514;-39
2023/08/17 05:23:44;;;;;;;;;19.00;16.00;;;;;25.35;50.20;101228.06;4978434;28;47157;-40
2023/08/17 05:26:09;;;;;;;;;14.00;13.25;;;;;25.34;50.28;101229.91;4977979;28;59382;-48
2023/08/17 05:28:34;;;;;;;;;15.25;14.25;;;;;25.35;50.05;101228.06;4977969;28;57667;-42
2023/08/17 05:31:05;;;;;;;;;12.75;11.75;;;;;25.32;50.22;101224.69;4978390;28;53552;-40
2023/08/17 05:33:31;;;;;;;;;17.75;13.50;;;;;25.32;50.34;101222.03;4978654;28;46207;-37
2023/08/17 05:35:56;;;;;;;;;15.25;14.00;;;;;25.34;50.42;101223.72;4978344;28;47652;-38
2023/08/17 05:38:21;;;;;;;;;12.50;12.50;;;;;25.34;50.10;101218.41;4978615;28;45389;-40
2023/08/17 05:40:47;;;;;;;;;14.75;13.50;;;;;25.32;50.40;101213.22;4978538;28;45651;-41
2023/08/17 05:43:12;;;;;;;;;13.25;13.00;;;;;25.32;50.42;101211.41;4976964;28;46076;-42
2023/08/17 05:45:37;;;;;;;;;13.50;12.00;;;;;25.31;50.51;101217.66;4978250;28;45275;-42
2023/08/17 05:48:03;;;;;;;;;13.75;13.25;;;;;25.32;50.22;101221.19;4978351;28;45310;-40
2023/08/17 05:50:30;;;;;;;;;14.50;14.00;;;;;25.32;50.13;101216.72;4978734;28;45256;-38
2023/08/17 05:52:55;;;;;;;;;14.00;13.50;;;;;25.32;50.19;101210.56;4978013;28;46189;-36
2023/08/17 05:55:21;;;;;;;;;12.50;12.00;;;;;25.31;50.09;101209.72;4977880;28;51106;-40
2023/08/17 05:57:46;;;;;;;;;14.00;12.00;;;;;25.32;50.51;101222.03;4978076;28;45215;-36
2023/08/17 06:00:12;;;;;;;;;17.75;15.00;;;;;25.32;50.34;101215.88;4978339;28;45207;-39
2023/08/17 06:02:38;;;;;;;;;13.25;12.00;;;;;25.30;50.26;101215.97;4977889;28;46068;-43
2023/08/17 06:05:04;;;;;;;;;14.00;12.75;;;;;25.31;50.44;101216.84;4978202;28;45913;-38
2023/08/17 06:07:29;;;;;;;;;15.00;13.00;;;;;25.30;50.49;101205.34;4978302;28;45346;-40
2023/08/17 06:09:55;;;;;;;;;16.75;13.50;;;;;25.31;50.81;101203.56;4978223;28;45481;-42
2023/08/17 06:12:20;;;;;;;;;16.25;14.00;;;;;25.32;50.60;101211.41;4960345;28;45447;-39
2023/08/17 06:14:45;;;;;;;;;12.25;11.75;;;;;25.31;50.58;101204.41;4977855;28;45377;-40
2023/08/17 06:17:11;;;;;;;;;12.00;12.00;;;;;25.32;50.54;101211.41;4977896;28;45319;-43
2023/08/17 06:19:36;;;;;;;;;15.75;14.25;;;;;25.32;50.67;101211.41;4978001;28;45513;-41
2023/08/17 06:22:01;;;;;;;;;9.25;9.25;;;;;25.34;50.62;101202.50;4977928;28;47136;-46
2023/08/17 06:24:26;;;;;;;;;11.50;11.25;;;;;25.34;50.61;101207.81;4977595;28;45243;-41
2023/08/17 06:26:52;;;;;;;;;20.50;13.75;;;;;25.33;50.61;101214.94;4977468;28;45345;-37
2023/08/17 06:29:17;;;;;;;;;19.75;18.50;;;;;25.32;50.60;101213.22;4960255;28;45318;-43
2023/08/17 06:31:42;;;;;;;;;16.00;15.00;;;;;25.34;50.52;101213.13;4977249;28;49392;-38
2023/08/17 06:34:08;;;;;;;;;15.00;15.00;;;;;25.34;50.35;101205.16;4977358;28;46693;-41
2023/08/17 06:36:33;;;;;;;;;17.25;14.75;;;;;25.29;50.64;101216.94;4977991;28;45329;-38
2023/08/17 06:38:59;;;;;;;;;19.25;17.75;;;;;25.29;50.81;101211.66;4977643;28;45330;-42
2023/08/17 06:41:24;;;;;;;;;17.25;15.50;;;;;25.27;51.36;101210.91;4977250;28;45962;-42
2023/08/17 06:43:50;;;;;;;;;22.00;18.50;;;;;25.27;50.91;101208.25;4977278;28;45385;-42
2023/08/17 06:46:15;;;;;;;;;24.00;19.25;;;;;25.23;51.10;101212.06;4977500;28;45361;-36
2023/08/17 06:48:43;;;;;;;;;22.00;17.25;;;;;25.23;50.67;101212.06;4977573;28;45369;-37
2023/08/17 06:51:08;;;;;;;;;20.00;17.75;;;;;25.21;51.13;101203.34;4977224;28;46209;-38
2023/08/17 06:53:33;;;;;;;;;21.75;17.00;;;;;25.21;51.15;101202.53;4977213;28;52433;-38
2023/08/17 06:55:58;;;;;;;;;24.50;19.00;;;;;25.20;51.13;101198.16;4977272;28;45377;-47
2023/08/17 06:58:24;;;;;;;;;23.50;19.00;;;;;25.21;51.40;101198.06;4977112;28;45444;-39
2023/08/17 07:00:49;;;;;;;;;24.50;22.00;;;;;25.19;50.96;101197.31;4976499;28;59155;-39
2023/08/17 07:03:16;;;;;;;;;22.25;16.75;;;;;25.19;51.39;101199.94;4976875;28;48023;-37
2023/08/17 07:05:41;;;;;;;;;23.00;18.00;;;;;25.21;51.31;101194.56;4976993;28;45503;-38
2023/08/17 07:08:07;;;;;;;;;20.50;18.00;;;;;25.21;51.12;101191.91;4977666;28;45549;-40
2023/08/17 07:10:32;;;;;;;;;25.50;21.25;;;;;25.22;51.11;101196.25;4977084;28;46028;-41
2023/08/17 07:12:57;;;;;;;;;21.75;17.25;;;;;25.22;51.37;101201.56;4976892;28;45805;-38
2023/08/17 07:15:23;;;;;;;;;21.75;19.25;;;;;25.21;51.35;101195.41;4977045;28;45295;-36
2023/08/17 07:17:48;;;;;;;;;24.00;21.25;;;;;25.19;51.55;101194.66;4975842;28;45352;-37
2023/08/17 07:20:13;;;;;;;;;26.00;19.75;;;;;25.21;51.75;101192.75;4976802;28;46344;-40
2023/08/17 07:22:39;;;;;;;;;26.50;18.00;;;;;25.22;51.21;101194.44;4976711;28;45333;-37
2023/08/17 07:25:04;;;;;;;;;23.75;20.50;;;;;25.24;51.24;101184.59;4977276;28;45297;-38
2023/08/17 07:27:30;;;;;;;;;26.00;22.75;;;;;25.27;51.09;101188.81;4976980;28;45219;-42
2023/08/17 07:29:55;;;;;;;;;18.50;18.00;;;;;25.27;51.73;101192.34;4976650;28;45649;-38
2023/08/17 07:32:21;;;;;;;;;17.00;16.50;;;;;25.29;51.13;101190.44;4976481;28;48254;-39
2023/08/17 07:34:47;;;;;;;;;23.75;19.25;;;;;25.30;51.53;101186.78;4976746;28;45405;-41
2023/08/17 07:37:13;;;;;;;;;20.00;16.75;;;;;25.31;51.35;101188.50;4976981;28;45511;-37
2023/08/17 07:39:38;;;;;;;;;20.75;17.75;;;;;25.33;51.63;101185.75;4978498;28;46844;-37
2023/08/17 07:42:06;;;;;;;;;20.00;19.00;;;;;25.34;51.01;101189.22;4979922;28;45315;-45
2023/08/17 07:44:31;;;;;;;;;17.25;16.50;;;;;25.35;51.49;101193.59;4980201;28;45472;-38
2023/08/17 07:46:57;;;;;;;;;19.25;17.00;;;;;25.36;51.25;101188.16;4980265;28;45425;-38
2023/08/17 07:49:24;;;;;;;;;19.50;17.50;;;;;25.38;51.31;101193.38;4979952;28;46394;-39
2023/08/17 07:51:49;;;;;;;;;19.75;18.25;;;;;25.38;51.10;101196.03;4979968;28;45881;-38
2023/08/17 07:54:14;;;;;;;;;20.25;16.00;;;;;25.39;51.33;101201.22;4980071;28;45422;-41
2023/08/17 07:56:40;;;;;;;;;21.25;17.25;;;;;25.40;50.77;101207.38;4980234;28;45703;-37
2023/08/17 07:59:05;;;;;;;;;16.75;16.75;;;;;25.40;51.25;101202.09;4980088;28;46234;-43
2023/08/17 08:01:30;;;;;;;;;19.25;17.50;;;;;25.41;50.82;101209.13;4979692;28;45350;-42
2023/08/17 08:03:56;;;;;;;;;22.50;18.00;;;;;25.43;51.27;101207.19;4979819;28;45365;-39
2023/08/17 08:06:21;;;;;;;;;22.50;18.50;;;;;25.42;51.24;101201.03;4978644;28;45421;-36
2023/08/17 08:08:46;;;;;;;;;20.00;16.00;;;;;25.44;50.88;101208.88;4979564;28;46253;-40
2023/08/17 08:11:12;;;;;;;;;22.75;18.75;;;;;25.43;51.33;101207.19;4978284;28;45398;-36
2023/08/17 08:13:37;;;;;;;;;22.00;17.00;;;;;25.46;51.47;101212.28;4980119;28;45374;-43
2023/08/17 08:16:03;;;;;;;;;20.75;17.00;;;;;25.46;50.94;101204.31;4979675;28;45390;-43
2023/08/17 08:18:28;;;;;;;;;17.00;16.25;;;;;25.49;51.04;101205.91;4979404;28;45384;-41
2023/08/17 08:20:53;;;;;;;;;21.00;17.25;;;;;25.48;50.94;101199.75;4979299;28;45353;-43
2023/08/17 08:23:18;;;;;;;;;21.75;18.50;;;;;25.51;51.46;101202.22;4979662;28;45341;-40
2023/08/17 08:25:44;;;;;;;;;21.50;19.00;;;;;25.52;51.19;101201.22;4979201;28;46891;-40
2023/08/17 08:28:09;;;;;;;;;18.25;18.25;;;;;25.52;51.11;101209.19;4979523;28;47704;-39
2023/08/17 08:30:35;;;;;;;;;22.00;19.75;;;;;25.56;51.25;101207.19;4979148;28;47923;-41
2023/08/17 08:33:01;;;;;;;;;22.75;17.75;;;;;25.55;51.17;101195.69;4979326;28;45447;-36
2023/08/17 08:35:28;;;;;;;;;20.00;17.75;;;;;25.59;51.48;101202.50;4978326;28;45512;-42
2023/08/17 08:37:55;;;;;;;;;20.00;19.75;;;;;25.61;51.12;101208.56;4979144;28;46252;-38
2023/08/17 08:40:27;;;;;;;;;21.75;17.25;;;;;25.62;51.00;101201.44;4979010;28;45265;-36
2023/08/17 08:42:52;;;;;;;;;21.25;18.00;;;;;25.64;50.93;101207.47;4979209;28;45397;-37
2023/08/17 08:45:19;;;;;;;;;20.25;18.00;;;;;25.66;50.79;101208.22;4979180;28;45246;-41
2023/08/17 08:47:45;;;;;;;;;17.25;16.50;;;;;25.66;50.92;101210.00;4977540;28;46484;-40
2023/08/17 08:50:18;;;;;;;;;22.00;19.50;;;;;25.67;51.13;101207.25;4969171;28;45984;-39
2023/08/17 08:52:59;;;;;;;;;17.75;17.75;;;;;25.66;50.90;101205.56;4978564;28;45421;-38
2023/08/17 08:55:27;;;;;;;;;18.25;16.75;;;;;25.67;50.99;101207.25;4978631;28;45479;-42
2023/08/17 08:57:54;;;;;;;;;23.50;20.25;;;;;25.68;50.89;101205.44;4978216;28;46216;-34
2023/08/17 09:00:20;;;;;;;;;25.00;22.00;;;;;25.68;51.21;101197.47;4985047;28;45362;-35
2023/08/17 09:02:46;;;;;;;;;21.00;18.50;;;;;25.68;50.89;101195.69;4978202;28;45316;-42
2023/08/17 09:05:13;;;;;;;;;23.50;22.00;;;;;25.70;50.89;101198.22;4978636;28;45306;-39
2023/08/17 09:07:39;;;;;;;;;22.75;19.75;;;;;25.70;51.26;101191.09;4978128;28;47296;-44
2023/08/17 09:10:05;;;;;;;;;20.50;18.00;;;;;25.72;51.04;101201.63;4978105;28;45327;-35
2023/08/17 09:12:31;;;;;;;;;20.50;19.50;;;;;25.74;50.94;101197.06;4978554;28;45246;-38
2023/08/17 09:14:56;;;;;;;;;15.75;14.75;;;;;25.75;51.06;101190.75;4979003;28;45341;-36
2023/08/17 09:17:26;;;;;;;;;21.50;18.75;;;;;25.76;51.22;101197.78;4977605;28;45411;-37
2023/08/17 09:19:52;;;;;;;;;23.25;18.00;;;;;25.75;50.97;101194.28;4975517;28;45271;-36
2023/08/17 09:22:24;;;;;;;;;17.00;16.25;;;;;25.77;50.60;101194.16;4978752;28;45300;-35
2023/08/17 09:24:49;;;;;;;;;22.50;20.75;;;;;25.78;50.66;101191.41;4978900;28;45596;-41
2023/08/17 09:27:15;;;;;;;;;22.50;21.25;;;;;25.78;50.89;101185.25;4978724;28;46188;-43
2023/08/17 09:29:45;;;;;;;;;20.00;19.25;;;;;25.80;51.24;101180.66;4978635;28;46067;-37
2023/08/17 09:32:11;;;;;;;;;26.25;21.00;;;;;25.80;50.97;101175.34;4978902;28;45294;-39
2023/08/17 09:34:36;;;;;;;;;23.25;19.75;;;;;25.82;50.88;101177.88;4978651;28;45332;-36
2023/08/17 09:37:05;;;;;;;;;22.25;17.75;;;;;25.82;50.94;101176.09;4978128;28;50508;-39
2023/08/17 09:39:31;;;;;;;;;20.75;19.25;;;;;25.83;51.05;101177.81;4978410;28;45756;-35
2023/08/17 09:41:57;;;;;;;;;21.00;20.25;;;;;25.85;50.80;101178.50;4978500;28;45317;-35
2023/08/17 09:44:22;;;;;;;;;23.00;20.00;;;;;25.87;50.93;101184.56;4978701;28;45227;-38
2023/08/17 09:46:48;;;;;;;;;21.75;19.50;;;;;25.88;50.99;101180.13;4978155;28;46009;-36
2023/08/17 09:49:13;;;;;;;;;19.00;18.75;;;;;25.88;50.73;101175.63;4978493;28;45378;-42
2023/08/17 09:51:43;;;;;;;;;17.00;17.00;;;;;25.88;50.83;101178.28;4978478;28;45356;-37
2023/08/17 09:54:30;;;;;;;;;17.75;16.25;;;;;25.89;50.67;101173.84;4978478;28;45220;-39
2023/08/17 09:56:57;;;;;;;;;22.50;19.50;;;;;25.89;50.15;101169.38;4978031;28;45352;-40
2023/08/17 09:59:23;;;;;;;;;24.50;21.25;;;;;25.87;50.28;101168.63;4978045;28;45306;-37
2023/08/17 10:01:50;;;;;;;;;18.00;17.00;;;;;25.88;50.57;101159.72;4977430;28;45401;-45
2023/08/17 10:04:24;;;;;;;;;18.50;16.50;;;;;25.88;50.66;101170.31;4978292;28;45271;-44
2023/08/17 10:06:59;;;;;;;;;19.75;16.00;;;;;25.88;50.45;101165.03;4977757;28;46271;-40
2023/08/17 10:09:31;;;;;;;;;20.25;17.50;;;;;25.88;50.43;101162.38;4977870;28;45348;-43
2023/08/17 10:12:02;;;;;;;;;20.50;19.00;;;;;25.88;50.28;101153.56;4960404;28;45302;-41
2023/08/17 10:14:39;;;;;;;;;16.25;16.25;;;;;25.89;50.20;101152.59;4977978;28;45294;-41
2023/08/17 10:17:10;;;;;;;;;18.50;15.25;;;;;25.88;50.07;101149.09;4977791;28;46010;-42
2023/08/17 10:19:52;;;;;;;;;20.75;17.25;;;;;25.88;50.43;101145.59;4976376;28;45779;-37
2023/08/17 10:22:33;;;;;;;;;18.25;18.25;;;;;25.87;49.82;101142.06;4978276;28;45588;-36
2023/08/17 10:25:00;;;;;;;;;19.25;17.00;;;;;25.88;50.03;101150.91;4977972;28;45523;-38
2023/08/17 10:27:26;;;;;;;;;24.00;20.00;;;;;25.89;50.10;101144.63;4977587;28;46205;-42
2023/08/17 10:29:52;;;;;;;;;23.25;21.00;;;;;25.89;50.02;101141.97;4977438;28;45673;-39
2023/08/17 10:32:18;;;;;;;;;22.25;20.00;;;;;25.89;50.04;101136.69;4960471;28;45293;-41
2023/08/17 10:34:44;;;;;;;;;21.50;21.00;;;;;25.88;49.59;101135.81;4977877;28;45460;-38
2023/08/17 10:37:11;;;;;;;;;23.75;22.00;;;;;25.89;50.22;101129.53;4976183;28;47112;-37
2023/08/17 10:39:45;;;;;;;;;29.00;23.00;;;;;25.89;49.91;101134.03;4977437;28;45855;-38
2023/08/17 10:42:10;;;;;;;;;28.25;24.50;;;;;25.89;50.20;101126.88;4977342;28;45388;-39
2023/08/17 10:44:48;;;;;;;;;26.75;23.25;;;;;25.90;49.87;101120.63;4977627;28;45576;-37
2023/08/17 10:47:26;;;;;;;;;30.00;25.50;;;;;25.90;50.10;101125.94;4977337;28;46437;-42
2023/08/17 10:49:55;;;;;;;;;25.75;23.75;;;;;25.90;50.19;101119.78;4977248;28;45848;-39
2023/08/17 10:52:27;;;;;;;;;28.75;24.75;;;;;25.90;49.72;101115.31;4976139;28;45356;-37
2023/08/17 10:54:53;;;;;;;;;30.25;26.50;;;;;25.91;49.52;101121.44;4977617;28;45335;-35
2023/08/17 10:57:25;;;;;;;;;28.50;24.75;;;;;25.93;49.54;101124.84;4976805;28;45357;-42
2023/08/17 11:00:31;;;;;;;;;28.50;28.00;;;;;25.92;49.51;101124.00;4976587;28;45832;-37
2023/08/17 11:03:02;;;;;;;;;24.75;23.75;;;;;25.92;49.26;101124.00;4976499;28;45386;-46
2023/08/17 11:05:49;;;;;;;;;27.00;27.00;;;;;25.92;49.45;101118.69;4976636;28;45540;-45
2023/08/17 11:08:38;;;;;;;;;26.75;25.25;;;;;25.92;49.42;101116.03;4975953;28;46846;-48
2023/08/17 11:11:09;;;;;;;;;28.75;27.50;;;;;25.92;49.40;101124.00;4976016;28;45987;-43